Terminal Aerodrome Forecast
Issued by NWS Jackson, MS

Home | Current Version | Previous Version | Text Only | Print | Product List | Glossary On
Versions: 1 2 3 4 5 6 7 8 9 10 11 12 13 14 15 16 17 18 19 20 21
727
FTUS44 KJAN 301746 RRA
TAFGLH
TAF
KGLH 301746Z 3018/3118 29009KT P6SM VCSH FEW040 SCT060
     FM310100 20004KT P6SM SKC
     FM311000 21003KT 6SM BR FEW015
     FM311500 25007KT P6SM FEW020 SCT030=

USA.gov is the U.S. government's official web portal to all federal, state and local government web resources and services.